Time;durP1;ratioP1;P1;durP2;ratioP2;P2;SDS_P1;SDS_P2;PMS_P1;PMS_P2;Temp;Humidity;BMP_temperature;BMP_pressure;BME280_temperature;BME280_humidity;BME280_pressure;Samples;Min_cycle;Max_cycle;Signal;HPM_P1;HPM_P2
2022/04/30 00:12:47;;;;;;;11.32;5.90;;;;;;;5.90;75.30;102702.63;6567261;22;1376171;-84
2022/04/30 00:15:38;;;;;;;10.47;5.77;;;;;;;5.85;75.79;102693.81;6540411;22;20015;-82
2022/04/30 00:18:16;;;;;;;12.40;5.78;;;;;;;5.75;76.67;102702.94;6539439;22;20014;-83
2022/04/30 00:20:48;;;;;;;10.73;6.20;;;;;;;5.76;77.06;102696.91;6540104;22;20011;-84
2022/04/30 00:23:19;;;;;;;8.27;5.77;;;;;;;5.68;77.34;102700.94;6543310;22;20003;-83
2022/04/30 00:25:53;;;;;;;12.37;6.70;;;;;;;5.65;77.75;102703.41;6514684;22;20026;-83
2022/04/30 00:28:36;;;;;;;8.63;5.57;;;;;;;5.72;77.33;102697.66;6539790;22;20007;-83
2022/04/30 00:31:07;;;;;;;14.45;6.40;;;;;;;5.59;78.07;102704.06;6513542;22;20011;-83
2022/04/30 00:33:39;;;;;;;13.07;7.43;;;;;;;5.57;78.40;102713.47;6541042;22;20004;-83
2022/04/30 00:36:10;;;;;;;12.27;5.73;;;;;;;5.67;78.55;102706.94;6513872;22;20015;-81
2022/04/30 00:38:42;;;;;;;9.17;5.83;;;;;;;5.54;79.00;102695.25;6540747;22;20027;-83
2022/04/30 00:41:16;;;;;;;9.63;5.63;;;;;;;5.54;78.82;102702.09;6540210;22;20017;-82
2022/04/30 00:43:51;;;;;;;7.85;5.35;;;;;;;5.51;78.78;102697.72;6513836;22;20037;-82
2022/04/30 00:46:23;;;;;;;8.95;4.82;;;;;;;5.46;78.87;102697.53;6539825;22;20008;-82
2022/04/30 00:48:57;;;;;;;13.23;5.90;;;;;;;5.39;79.24;102695.50;6540089;22;20025;-82
2022/04/30 00:51:50;;;;;;;10.88;5.10;;;;;;;5.46;79.24;102694.94;6540600;22;20015;-83
2022/04/30 00:54:40;;;;;;;7.45;5.38;;;;;;;5.38;79.62;102698.94;6539926;22;20031;-84
2022/04/30 00:57:29;;;;;;;10.63;5.28;;;;;;;5.31;79.89;102689.16;6539513;22;20003;-83
2022/04/30 01:00:01;;;;;;;7.95;5.05;;;;;;;5.23;80.17;102675.94;6540807;22;20697;-83
2022/04/30 01:02:33;;;;;;;9.65;5.45;;;;;;;5.14;80.54;102683.31;6540519;22;20049;-84
2022/04/30 01:05:16;;;;;;;8.37;5.47;;;;;;;5.11;81.24;102676.31;6539136;22;20008;-84
2022/04/30 01:07:47;;;;;;;13.50;6.20;;;;;;;5.08;81.17;102685.66;6538371;22;20121;-83
2022/04/30 01:10:19;;;;;;;8.03;5.77;;;;;;;4.96;81.25;102679.97;6539344;22;20369;-82
2022/04/30 01:12:56;;;;;;;8.88;5.45;;;;;;;4.93;81.83;102670.41;6533318;22;20016;-83
2022/04/30 01:15:38;;;;;;;8.73;5.85;;;;;;;4.88;82.10;102677.09;6532709;22;20035;-83
2022/04/30 01:18:10;;;;;;;9.90;5.85;;;;;;;4.95;82.11;102686.88;6531912;22;20004;-82
2022/04/30 01:20:50;;;;;;;9.35;5.25;;;;;;;4.91;82.58;102675.53;6438192;23;20019;-84
2022/04/30 01:23:22;;;;;;;10.15;5.43;;;;;;;4.94;82.07;102677.34;6414952;23;20016;-82
2022/04/30 01:26:08;;;;;;;9.63;5.20;;;;;;;4.80;82.69;102675.88;6441302;23;20013;-84
2022/04/30 01:28:43;;;;;;;11.70;6.15;;;;;;;4.82;83.25;102675.13;6439512;23;20009;-83
2022/04/30 01:40:04;;;;;;;12.02;7.25;;;;;;;4.84;83.76;102677.78;6431731;23;20037;-82
2022/04/30 01:42:44;;;;;;;9.82;5.88;;;;;;;4.73;83.69;102670.50;6407906;23;20017;-83
2022/04/30 01:45:18;;;;;;;12.07;6.10;;;;;;;4.74;84.10;102677.41;6433586;23;20040;-82
2022/04/30 01:47:50;;;;;;;8.52;5.90;;;;;;;4.64;84.50;102674.38;6432503;23;20143;-83
2022/04/30 01:50:24;;;;;;;;;;;;;;;4.67;83.17;102677.06;6433357;23;20053;-83
2022/04/30 01:53:09;;;;;;;14.52;6.80;;;;;;;4.49;85.07;102666.84;6530309;22;19911;-82
2022/04/30 01:55:40;;;;;;;8.65;5.55;;;;;;;4.52;85.30;102675.63;6530309;22;20078;-82
2022/04/30 01:58:12;;;;;;;14.43;6.40;;;;;;;4.51;85.62;102667.81;6530360;22;20031;-83
2022/04/30 02:00:46;;;;;;;10.63;6.07;;;;;;;4.47;85.40;102671.06;6529877;22;20421;-83
2022/04/30 02:03:18;;;;;;;11.85;7.15;;;;;;;4.46;85.88;102677.03;6530465;22;20412;-84
2022/04/30 02:05:50;;;;;;;9.53;6.60;;;;;;;4.41;86.03;102674.25;6503159;22;20056;-84
2022/04/30 02:08:22;;;;;;;12.18;6.43;;;;;;;4.41;86.05;102661.34;6529940;22;20008;-84
2022/04/30 02:10:56;;;;;;;12.80;6.60;;;;;;;4.35;86.31;102664.56;6530350;22;20761;-84
2022/04/30 02:13:32;;;;;;;12.93;6.90;;;;;;;4.28;86.26;102659.06;6530168;22;20035;-83
2022/04/30 02:16:07;;;;;;;10.32;6.90;;;;;;;4.23;86.96;102658.88;6530880;22;20007;-83
2022/04/30 02:18:49;;;;;;;11.73;7.05;;;;;;;4.24;87.04;102658.06;6530032;22;20000;-82
2022/04/30 02:21:36;;;;;;;15.32;7.70;;;;;;;4.23;87.20;102668.31;6529639;22;20008;-82
2022/04/30 02:24:20;;;;;;;11.93;6.55;;;;;;;4.05;87.28;102645.19;6504224;22;20015;-83
2022/04/30 02:27:04;;;;;;;11.50;7.25;;;;;;;4.06;87.45;102654.66;6529528;22;20008;-83
2022/04/30 02:29:38;;;;;;;14.10;7.03;;;;;;;4.00;88.12;102647.56;6502303;22;20004;-82
2022/04/30 02:32:19;;;;;;;9.43;6.93;;;;;;;3.95;88.09;102644.75;6530744;22;20014;-85
2022/04/30 02:35:04;;;;;;;13.50;7.72;;;;;;;3.97;88.05;102655.16;6530084;22;20367;-82
2022/04/30 02:37:36;;;;;;;10.05;7.00;;;;;;;3.87;88.18;102653.00;6530256;22;20008;-84
2022/04/30 02:40:08;;;;;;;12.53;8.13;;;;;;;3.86;88.77;102643.47;6502601;22;20064;-84
2022/04/30 02:42:41;;;;;;;16.30;7.90;;;;;;;3.80;88.85;102651.81;6530178;22;20014;-84
2022/04/30 02:45:14;;;;;;;11.52;7.60;;;;;;;3.78;89.20;102648.28;6530197;22;20448;-83
2022/04/30 02:47:46;;;;;;;;;;;;;;;3.76;87.92;102648.22;6530598;22;20079;-84
2022/04/30 02:50:34;;;;;;;13.95;7.53;;;;;;;3.60;88.96;102635.44;6531283;22;19957;-85
2022/04/30 02:53:06;;;;;;;10.73;7.75;;;;;;;3.68;89.42;102635.78;6531006;22;20027;-85
2022/04/30 02:55:37;;;;;;;11.30;8.30;;;;;;;3.63;90.10;102644.19;6504521;22;20413;-85
2022/04/30 03:01:14;;;;;;;14.00;8.25;;;;;;;3.59;90.96;102644.88;6531754;22;20023;-85
2022/04/30 03:03:47;;;;;;;11.20;8.00;;;;;;;3.53;90.95;102636.84;6531774;22;20030;-85
2022/04/30 03:06:28;;;;;;;14.93;8.48;;;;;;;3.51;91.70;102633.34;6531886;22;20086;-85
2022/04/30 03:08:59;;;;;;;12.02;8.35;;;;;;;3.59;91.49;102646.56;6504826;22;20145;-84
2022/04/30 03:11:43;;;;;;;18.73;9.27;;;;;;;3.53;92.11;102639.44;6532075;22;20042;-84
2022/04/30 03:14:15;;;;;;;17.55;9.35;;;;;;;3.61;91.93;102639.78;6531185;22;20257;-83
2022/04/30 03:22:47;;;;;;;15.48;9.25;;;;;;;3.63;91.54;102646.75;6534788;22;20019;-84
2022/04/30 03:25:18;;;;;;;11.80;9.13;;;;;;;3.51;91.79;102637.59;6538669;22;20012;-85
2022/04/30 03:27:49;;;;;;;13.10;8.90;;;;;;;3.57;91.65;102638.75;6510369;22;20031;-85
2022/04/30 03:30:22;;;;;;;17.10;10.03;;;;;;;3.48;92.44;102628.03;6540962;22;20034;-84
2022/04/30 03:32:54;;;;;;;14.00;8.85;;;;;;;3.52;92.71;102629.03;6538512;22;20011;-84
2022/04/30 03:35:28;;;;;;;13.37;8.97;;;;;;;3.56;92.66;102633.50;6535521;22;20008;-82
2022/04/30 03:38:10;;;;;;;13.15;8.73;;;;;;;3.50;92.51;102621.25;6534736;22;20030;-83
2022/04/30 03:40:48;;;;;;;14.77;9.25;;;;;;;3.47;92.62;102611.66;6503781;22;20011;-85
2022/04/30 03:43:35;;;;;;;15.70;9.45;;;;;;;3.50;92.49;102625.53;6531010;22;20003;-85
2022/04/30 03:46:13;;;;;;;19.50;10.18;;;;;;;3.50;92.84;102620.38;6530634;22;20019;-83
2022/04/30 03:49:01;;;;;;;16.48;9.48;;;;;;;3.32;93.06;102607.50;6530721;22;20003;-85
2022/04/30 03:51:43;;;;;;;14.90;9.30;;;;;;;3.38;92.90;102612.94;6530670;22;20011;-85
2022/04/30 03:54:14;;;;;;;12.90;9.57;;;;;;;3.29;92.86;102611.69;6503866;22;20000;-85
2022/04/30 03:56:58;;;;;;;17.30;10.37;;;;;;;3.25;93.15;102614.06;6530353;22;20069;-83
2022/04/30 03:59:30;;;;;;;12.45;9.77;;;;;;;3.16;93.50;102606.78;6503647;22;20124;-84
2022/04/30 04:02:01;;;;;;;15.43;10.10;;;;;;;3.17;93.55;102606.00;6502936;22;20428;-84
2022/04/30 04:04:45;;;;;;;14.53;10.43;;;;;;;3.13;94.44;102613.50;6530227;22;20404;-84
2022/04/30 04:07:16;;;;;;;13.65;9.98;;;;;;;3.17;94.61;102615.41;6529953;22;20467;-83
2022/04/30 04:09:47;;;;;;;17.37;10.93;;;;;;;3.17;94.28;102625.69;6530254;22;20030;-83
2022/04/30 04:12:19;;;;;;;15.13;9.57;;;;;;;3.16;94.72;102618.81;6530081;22;20302;-83
2022/04/30 04:17:41;;;;;;;15.30;9.40;;;;;;;3.06;94.62;102618.34;6529227;22;20015;-83
2022/04/30 04:20:29;;;;;;;11.15;9.10;;;;;;;3.14;94.79;102628.13;6502006;22;20008;-84
2022/04/30 04:23:06;;;;;;;13.93;9.98;;;;;;;3.03;94.49;102613.06;6529656;22;20054;-84
2022/04/30 04:26:00;;;;;;;18.17;10.32;;;;;;;3.12;94.84;102625.47;6530994;22;20405;-83
2022/04/30 04:28:32;;;;;;;12.77;9.73;;;;;;;3.13;94.64;102626.38;6495282;23;20012;-82
2022/04/30 04:31:03;;;;;;;15.00;10.30;;;;;;;3.13;94.40;102632.41;6494448;23;20015;-83
2022/04/30 04:33:35;;;;;;;13.90;10.23;;;;;;;3.10;94.57;102625.41;6496807;23;20004;-83
2022/04/30 04:39:44;;;;;;;15.93;10.57;;;;;;;3.05;95.01;102613.13;6501047;22;20106;-84
2022/04/30 04:42:38;;;;;;;20.60;10.60;;;;;;;3.20;94.84;102636.16;6496010;23;20058;-84
2022/04/30 04:45:28;;;;;;;16.83;11.20;;;;;;;3.12;94.89;102612.59;6499045;23;20042;-84
2022/04/30 04:48:06;;;;;;;17.23;11.10;;;;;;;3.20;95.16;102618.13;6499625;23;20046;-85
2022/04/30 04:50:47;;;;;;;12.85;10.60;;;;;;;3.19;95.22;102624.97;6475799;23;20047;-84
2022/04/30 04:53:26;;;;;;;21.38;10.50;;;;;;;3.23;94.76;102639.75;6500390;23;20081;-84
2022/04/30 04:56:38;;;;;;;17.55;12.30;;;;;;;3.28;95.23;102640.88;6498526;23;20004;-83
2022/04/30 04:59:41;;;;;;;18.50;10.70;;;;;;;3.31;94.87;102646.97;6483897;22;20011;-84
2022/04/30 05:02:35;;;;;;;19.08;11.95;;;;;;;3.33;94.99;102655.66;6535250;22;20015;-83
2022/04/30 05:05:07;;;;;;;22.15;11.48;;;;;;;3.39;95.26;102655.97;6532320;22;20003;-85
2022/04/30 05:07:41;;;;;;;21.65;12.10;;;;;;;3.35;95.02;102652.38;6533133;22;20394;-83
2022/04/30 05:10:18;;;;;;;19.85;11.77;;;;;;;3.35;95.30;102654.94;6533484;22;20003;-84
2022/04/30 05:12:49;;;;;;;16.40;12.63;;;;;;;3.39;95.43;102649.09;6530971;22;20030;-84
2022/04/30 05:15:21;;;;;;;19.53;12.30;;;;;;;3.41;95.36;102660.38;6530879;22;20015;-84
2022/04/30 05:17:55;;;;;;;17.97;11.87;;;;;;;3.41;95.89;102656.91;6535402;22;20007;-83
2022/04/30 05:20:43;;;;;;;17.23;11.88;;;;;;;3.55;96.33;102667.88;6534064;22;20004;-83
2022/04/30 05:23:31;;;;;;;18.33;11.25;;;;;;;3.52;95.72;102650.53;6504053;22;20089;-83
2022/04/30 05:26:03;;;;;;;21.17;12.85;;;;;;;3.66;96.39;102661.50;6502749;22;20341;-84
2022/04/30 05:29:26;;;;;;;16.90;12.07;;;;;;;3.74;96.46;102667.03;6532121;22;20007;-86
2022/04/30 05:31:57;;;;;;;19.23;12.95;;;;;;;3.81;96.29;102663.91;6376787;23;20020;-85
2022/04/30 05:34:29;;;;;;;19.63;13.03;;;;;;;3.82;96.89;102661.38;6376775;23;20041;-83
2022/04/30 05:37:00;;;;;;;19.13;13.10;;;;;;;3.90;96.35;102664.31;6402746;23;20132;-85
2022/04/30 05:39:46;;;;;;;18.97;12.33;;;;;;;3.96;96.81;102659.44;6402828;23;20005;-85
2022/04/30 05:42:18;;;;;;;20.05;13.27;;;;;;;4.04;96.85;102658.88;6382770;23;20018;-86
2022/04/30 05:44:49;;;;;;;21.27;14.23;;;;;;;4.14;97.01;102664.53;6402969;23;20009;-82
2022/04/30 05:47:21;;;;;;;20.23;13.33;;;;;;;4.28;96.52;102670.31;6401524;23;20018;-83
2022/04/30 05:49:52;;;;;;;18.17;13.40;;;;;;;4.34;96.80;102667.97;6401024;23;20010;-82
2022/04/30 05:52:25;;;;;;;18.53;13.07;;;;;;;4.44;96.52;102669.22;6402104;23;20765;-80
2022/04/30 05:54:56;;;;;;;21.00;13.38;;;;;;;4.43;96.02;102664.91;6400434;23;20010;-82
2022/04/30 05:57:45;;;;;;;23.27;13.37;;;;;;;4.56;96.15;102663.72;6412754;23;20076;-83
2022/04/30 06:00:17;;;;;;;22.10;12.93;;;;;;;4.67;95.95;102666.75;6401468;23;20013;-82
2022/04/30 06:02:49;;;;;;;15.40;11.80;;;;;;;4.74;95.17;102679.97;6400823;23;20427;-83
2022/04/30 06:05:22;;;;;;;23.42;13.60;;;;;;;4.82;95.03;102675.13;6401047;23;20245;-82
2022/04/30 06:07:53;;;;;;;22.80;12.63;;;;;;;4.96;94.62;102675.72;6418429;22;20314;-82
2022/04/30 06:10:25;;;;;;;19.07;11.43;;;;;;;5.05;94.22;102670.91;6506121;22;20065;-82
2022/04/30 06:12:57;;;;;;;17.27;12.30;;;;;;;5.15;94.31;102668.69;6502348;22;20007;-83
2022/04/30 06:15:28;;;;;;;19.35;12.23;;;;;;;5.20;93.54;102675.81;6529445;22;20016;-83
2022/04/30 06:18:08;;;;;;;16.13;11.70;;;;;;;5.34;93.32;102685.81;6529521;22;20008;-82
2022/04/30 06:20:40;;;;;;;16.13;11.48;;;;;;;5.40;92.78;102676.59;6533527;22;20010;-83
2022/04/30 06:23:15;;;;;;;16.10;12.23;;;;;;;5.43;92.54;102668.09;6529837;22;20082;-83
2022/04/30 06:25:47;;;;;;;16.92;11.27;;;;;;;5.59;91.94;102678.19;6479461;22;20028;-82
2022/04/30 06:28:28;;;;;;;12.90;11.30;;;;;;;5.68;92.11;102685.41;6410209;23;20088;-83
2022/04/30 06:38:08;;;;;;;19.23;11.23;;;;;;;6.09;90.42;102690.41;6423340;23;20009;-82
2022/04/30 06:40:43;;;;;;;15.25;10.85;;;;;;;6.21;89.52;102688.25;6411935;23;20001;-83
2022/04/30 06:43:24;;;;;;;13.85;11.02;;;;;;;6.28;89.09;102686.75;6438628;23;20335;-84
2022/04/30 06:45:55;;;;;;;13.98;10.10;;;;;;;6.36;88.73;102667.22;6410012;23;20005;-83
2022/04/30 06:48:51;;;;;;;15.60;11.03;;;;;;;6.46;88.56;102681.34;6410250;23;20009;-84
2022/04/30 06:51:22;;;;;;;13.35;9.07;;;;;;;6.60;87.91;102677.53;6434323;23;20033;-83
2022/04/30 06:57:22;;;;;;;12.63;9.85;;;;;;;6.80;86.81;102680.78;6434707;23;20092;-82
2022/04/30 06:59:56;;;;;;;18.58;10.00;;;;;;;6.85;86.01;102678.34;6407442;23;20033;-81
2022/04/30 07:02:31;;;;;;;14.30;10.07;;;;;;;6.99;85.21;102686.56;6410464;23;20016;-82
2022/04/30 07:05:11;;;;;;;15.55;9.90;;;;;;;7.04;85.10;102672.91;6437691;23;20568;-81
2022/04/30 07:07:42;;;;;;;16.38;11.07;;;;;;;7.20;84.29;102682.06;6436176;23;20032;-82
2022/04/30 07:10:15;;;;;;;16.73;9.60;;;;;;;7.23;83.68;102674.38;6438114;23;20027;-83
2022/04/30 07:12:46;;;;;;;13.30;9.52;;;;;;;7.39;83.76;102680.94;6411301;23;20434;-82
2022/04/30 07:15:21;;;;;;;18.43;8.70;;;;;;;7.53;82.93;102677.88;6410397;23;20013;-83
2022/04/30 07:17:58;;;;;;;15.25;10.73;;;;;;;7.69;82.47;102679.22;6436591;23;20040;-83
2022/04/30 07:20:41;;;;;;;14.40;9.88;;;;;;;7.74;81.43;102669.84;6435437;23;20065;-81
2022/04/30 07:23:15;;;;;;;15.05;9.55;;;;;;;7.90;80.97;102678.97;6435195;23;20040;-83
2022/04/30 07:25:47;;;;;;;21.70;8.48;;;;;;;8.10;79.57;102687.31;6437815;23;20013;-81
2022/04/30 07:28:18;;;;;;;14.13;8.47;;;;;;;8.27;79.08;102688.66;6409246;23;20013;-82
2022/04/30 07:30:51;;;;;;;17.77;8.23;;;;;;;8.36;78.27;102681.13;6404982;23;20015;-83
2022/04/30 07:33:22;;;;;;;17.00;8.40;;;;;;;8.46;77.17;102679.66;6408808;23;20013;-82
2022/04/30 07:36:16;;;;;;;14.23;8.30;;;;;;;8.78;77.11;102679.63;6408655;23;20027;-82
2022/04/30 07:38:55;;;;;;;11.15;7.13;;;;;;;8.71;75.42;102680.28;6433602;23;20011;-82
2022/04/30 07:41:26;;;;;;;11.23;7.15;;;;;;;9.08;74.76;102678.59;6410395;23;20032;-82
2022/04/30 07:44:32;;;;;;;9.93;7.30;;;;;;;9.54;74.20;102676.19;6433804;23;20132;-82
2022/04/30 07:47:29;;;;;;;11.55;6.60;;;;;;;9.63;72.10;102681.59;6434345;23;20005;-82
2022/04/30 07:50:07;;;;;;;16.88;7.65;;;;;;;9.40;71.11;102658.56;6435910;23;20088;-82
2022/04/30 07:52:38;;;;;;;11.55;6.40;;;;;;;9.56;72.28;102674.50;6408015;23;20415;-83
2022/04/30 07:55:10;;;;;;;11.57;6.77;;;;;;;9.79;70.79;102672.38;6434689;23;20012;-82
2022/04/30 07:57:57;;;;;;;10.93;6.50;;;;;;;10.27;69.96;102678.53;6408365;23;20103;-83
2022/04/30 08:00:32;;;;;;;11.18;5.95;;;;;;;10.55;68.90;102680.81;6434766;23;20295;-84
2022/04/30 08:03:09;;;;;;;18.85;6.80;;;;;;;10.65;67.62;102674.03;6434331;23;20374;-83
2022/04/30 08:05:50;;;;;;;10.35;6.15;;;;;;;10.75;66.89;102659.41;6435351;23;20080;-83
2022/04/30 08:08:58;;;;;;;9.38;6.20;;;;;;;10.79;66.96;102676.00;6434536;23;20155;-82
2022/04/30 08:11:44;;;;;;;7.57;4.85;;;;;;;10.89;65.55;102652.69;6434809;23;20376;-83
2022/04/30 08:14:15;;;;;;;9.02;5.15;;;;;;;11.10;64.39;102661.72;6434346;23;20008;-83
2022/04/30 08:16:46;;;;;;;7.53;4.80;;;;;;;11.27;62.87;102657.63;6434532;23;20005;-83
2022/04/30 08:20:03;;;;;;;10.67;5.00;;;;;;;11.75;63.03;102673.03;6434026;23;20330;-82
2022/04/30 08:22:41;;;;;;;8.45;4.57;;;;;;;11.98;62.14;102658.56;6408458;23;20020;-82
2022/04/30 08:25:12;;;;;;;7.78;4.53;;;;;;;12.13;60.82;102662.22;6409604;23;20009;-81
2022/04/30 08:28:16;;;;;;;10.57;5.00;;;;;;;12.88;60.90;102662.00;6380264;23;20025;-80
2022/04/30 08:33:32;;;;;;;6.90;4.25;;;;;;;12.37;58.21;102664.19;6464983;23;20036;-81
2022/04/30 08:36:04;;;;;;;8.65;3.92;;;;;;;12.47;57.85;102649.47;6471465;23;20004;-83
2022/04/30 08:38:35;;;;;;;8.40;4.22;;;;;;;12.17;57.18;102651.81;6469867;23;20011;-82
2022/04/30 08:41:10;;;;;;;8.57;5.00;;;;;;;11.74;59.54;102651.28;6467219;23;20008;-83
2022/04/30 08:43:47;;;;;;;7.57;5.15;;;;;;;11.36;60.93;102649.03;6467185;23;20448;-82
2022/04/30 08:46:20;;;;;;;11.05;4.80;;;;;;;11.07;62.45;102653.84;6466862;23;20001;-82
2022/04/30 08:48:51;;;;;;;7.82;4.47;;;;;;;10.60;62.79;102653.97;6467655;23;20009;-82
2022/04/30 08:51:23;;;;;;;10.07;5.00;;;;;;;10.29;64.06;102646.44;6441186;23;20036;-83
2022/04/30 08:57:01;;;;;;;9.30;5.40;;;;;;;10.35;64.52;102657.00;6372127;23;20010;-81
2022/04/30 08:59:33;;;;;;;8.48;5.60;;;;;;;10.64;65.56;102641.00;6372935;23;20017;-81
2022/04/30 09:02:10;;;;;;;11.83;6.03;;;;;;;10.97;62.44;102633.69;6371429;23;20204;-81
2022/04/30 09:05:13;;;;;;;9.10;5.43;;;;;;;11.55;62.33;102636.22;6372237;23;20427;-81
2022/04/30 09:07:58;;;;;;;8.45;5.30;;;;;;;12.15;59.06;102636.94;6372845;23;20010;-81
2022/04/30 09:10:58;;;;;;;9.77;4.97;;;;;;;12.31;58.67;102644.06;6372730;23;20013;-83
2022/04/30 09:13:46;;;;;;;8.30;4.85;;;;;;;12.18;59.04;102627.38;6372380;23;20018;-84
2022/04/30 09:16:24;;;;;;;7.97;4.40;;;;;;;12.33;58.32;102637.16;6366182;23;20013;-83
2022/04/30 09:19:09;;;;;;;11.35;5.30;;;;;;;11.96;58.63;102636.78;6370238;23;20164;-83
2022/04/30 09:21:53;;;;;;;10.02;5.35;;;;;;;12.07;59.02;102642.09;6371871;23;20414;-84
2022/04/30 09:24:43;;;;;;;7.68;4.65;;;;;;;12.28;58.03;102649.28;6373494;23;20092;-84
2022/04/30 09:27:15;;;;;;;7.43;4.88;;;;;;;12.16;57.27;102633.47;6347905;23;20021;-81
2022/04/30 09:29:47;;;;;;;;;;;;;;;12.77;56.96;102636.63;6371032;23;20073;-81
2022/04/30 09:32:33;;;;;;;11.23;5.38;;;;;;;12.43;57.08;102637.22;6388696;23;19912;-84
2022/04/30 09:38:12;;;;;;;9.95;4.88;;;;;;;11.82;58.18;102618.28;6468632;23;20406;-84
2022/04/30 09:40:57;;;;;;;11.38;5.13;;;;;;;11.58;58.30;102623.22;6471142;23;20500;-84
2022/04/30 09:43:30;;;;;;;8.32;4.95;;;;;;;11.56;58.17;102623.19;6470074;23;20517;-84
2022/04/30 09:46:41;;;;;;;9.20;5.13;;;;;;;11.70;59.34;102620.72;6472470;22;20020;-84
2022/04/30 09:54:53;;;;;;;10.77;5.20;;;;;;;12.11;57.38;102609.03;6480757;23;20365;-84
2022/04/30 09:57:31;;;;;;;8.17;5.03;;;;;;;12.46;54.90;102598.91;6474903;23;20162;-82
2022/04/30 10:00:16;;;;;;;7.28;4.75;;;;;;;12.93;54.15;102611.47;6445541;23;20307;-84
2022/04/30 10:03:08;;;;;;;8.70;4.75;;;;;;;13.33;53.00;102597.75;6470808;23;20064;-82
2022/04/30 10:05:43;;;;;;;8.45;4.88;;;;;;;13.39;52.07;102607.38;6443153;23;20020;-83
2022/04/30 10:08:16;;;;;;;10.85;5.05;;;;;;;13.72;52.55;102604.03;6477309;23;20005;-81
2022/04/30 10:11:08;;;;;;;8.90;4.90;;;;;;;13.77;51.44;102598.81;6493849;22;20023;-84
2022/04/30 10:14:13;;;;;;;8.43;4.28;;;;;;;13.83;50.29;102590.97;6498878;23;20004;-84
2022/04/30 10:17:10;;;;;;;8.02;4.80;;;;;;;13.76;47.80;102592.66;6498668;23;20004;-81
2022/04/30 10:19:39;;;;;;;7.65;4.05;;;;;;;14.05;49.16;102594.47;6496213;23;20022;-83
2022/04/30 10:22:12;;;;;;;9.85;4.60;;;;;;;14.18;45.91;102593.66;6499637;23;20323;-84
2022/04/30 10:24:47;;;;;;;5.15;3.65;;;;;;;14.33;44.59;102590.16;6500729;23;20008;-84
2022/04/30 10:27:19;;;;;;;5.55;3.50;;;;;;;14.79;45.73;102589.28;6500230;23;20004;-84
2022/04/30 10:29:58;;;;;;;6.18;3.72;;;;;;;15.20;45.25;102569.91;6478189;23;20019;-84
2022/04/30 10:32:35;;;;;;;5.65;3.88;;;;;;;15.82;44.29;102582.78;6497152;23;20007;-85
2022/04/30 10:35:07;;;;;;;10.05;4.40;;;;;;;15.23;43.47;102574.28;6499255;23;20043;-85
2022/04/30 10:37:39;;;;;;;8.00;3.85;;;;;;;14.90;43.41;102584.88;6502409;23;20007;-84
2022/04/30 10:40:10;;;;;;;4.77;3.60;;;;;;;14.56;43.46;102579.63;6475524;23;20000;-83
2022/04/30 10:42:44;;;;;;;7.27;3.37;;;;;;;14.45;43.49;102578.78;6474945;23;20027;-83
2022/04/30 10:45:28;;;;;;;6.43;3.30;;;;;;;14.32;44.81;102561.28;6471447;23;20091;-80
2022/04/30 10:48:05;;;;;;;5.43;3.65;;;;;;;14.26;44.95;102574.41;6499244;23;20429;-84
2022/04/30 10:50:37;;;;;;;4.95;3.50;;;;;;;13.86;43.92;102576.09;6476825;23;20008;-86
2022/04/30 10:53:10;;;;;;;5.13;3.10;;;;;;;14.18;45.40;102570.03;6476079;23;20012;-84
2022/04/30 10:56:00;;;;;;;6.28;3.75;;;;;;;14.14;44.76;102572.66;6499507;23;19999;-81
2022/04/30 10:58:33;;;;;;;6.47;3.38;;;;;;;14.19;44.55;102570.91;6501606;23;20008;-84
2022/04/30 11:01:11;;;;;;;7.70;3.70;;;;;;;16.50;40.30;102559.50;6499283;23;20040;-85
2022/04/30 11:03:45;;;;;;;6.22;3.08;;;;;;;17.70;36.77;102557.22;6479898;23;20004;-84
2022/04/30 11:06:29;;;;;;;4.97;3.60;;;;;;;19.56;34.08;102529.22;6503803;23;20008;-84
2022/04/30 11:09:06;;;;;;;6.50;3.60;;;;;;;20.97;31.10;102534.50;6477490;22;20008;-86
2022/04/30 11:11:39;;;;;;;5.78;3.60;;;;;;;20.93;29.74;102541.69;6476366;23;20014;-86
2022/04/30 11:14:21;;;;;;;7.03;3.88;;;;;;;21.25;32.09;102545.19;6504951;23;20086;-86
2022/04/30 11:16:53;;;;;;;5.05;3.45;;;;;;;22.70;27.70;102528.97;6504780;23;20377;-82
2022/04/30 11:19:24;;;;;;;4.83;2.63;;;;;;;23.65;27.84;102537.81;6506512;23;20014;-86
2022/04/30 11:21:57;;;;;;;5.00;2.85;;;;;;;24.75;24.56;102516.31;6505193;23;20003;-86
2022/04/30 11:24:31;;;;;;;4.75;3.33;;;;;;;25.29;23.52;102516.53;6479473;23;20004;-86
2022/04/30 11:27:12;;;;;;;5.85;3.00;;;;;;;25.83;22.73;102523.72;6480106;23;20012;-89
2022/04/30 11:29:49;;;;;;;6.13;3.10;;;;;;;26.57;23.25;102512.78;6506041;23;20000;-87
2022/04/30 11:32:36;;;;;;;6.00;3.58;;;;;;;27.03;23.10;102524.63;6478308;23;20017;-83
2022/04/30 11:35:08;;;;;;;5.47;2.97;;;;;;;25.94;22.80;102515.16;6498556;22;20051;-85
2022/04/30 11:37:45;;;;;;;5.28;3.33;;;;;;;25.75;22.70;102508.06;6505790;23;20004;-87
2022/04/30 11:40:24;;;;;;;4.35;3.30;;;;;;;25.94;22.88;102499.13;6479303;23;20030;-87
2022/04/30 11:42:59;;;;;;;6.90;2.75;;;;;;;26.47;21.51;102492.84;6479133;23;20008;-86
2022/04/30 11:45:34;;;;;;;4.75;3.30;;;;;;;24.67;22.47;102498.94;6480415;23;20008;-85
2022/04/30 11:48:12;;;;;;;4.78;3.42;;;;;;;21.89;25.91;102511.38;6479661;23;20004;-88
2022/04/30 11:51:07;;;;;;;6.53;3.15;;;;;;;20.77;26.45;102500.63;6485741;23;20453;-88
2022/04/30 11:53:39;;;;;;;6.45;3.50;;;;;;;19.29;28.45;102493.69;6357720;23;20361;-88
2022/04/30 11:56:11;;;;;;;8.13;4.90;;;;;;;18.09;32.65;102502.13;6353736;23;20006;-85
2022/04/30 11:58:43;;;;;;;10.83;4.73;;;;;;;16.88;34.99;102497.66;6352950;23;20030;-83
2022/04/30 12:01:25;;;;;;;7.63;4.85;;;;;;;16.48;37.24;102486.69;6352160;23;20325;-87
2022/04/30 12:04:15;;;;;;;16.90;5.25;;;;;;;16.03;37.99;102487.97;6298008;23;20015;-83
2022/04/30 12:07:03;;;;;;;8.20;5.05;;;;;;;15.09;40.09;102496.41;6343679;23;20020;-82
2022/04/30 12:09:43;;;;;;;10.02;5.20;;;;;;;14.18;42.67;102500.94;6346185;23;20054;-85
2022/04/30 12:12:22;;;;;;;9.05;5.30;;;;;;;13.77;44.07;102497.44;6379179;22;20012;-82
2022/04/30 12:14:57;;;;;;;8.30;4.93;;;;;;;13.24;45.47;102506.03;6508294;23;20023;-83
2022/04/30 12:17:33;;;;;;;7.70;5.65;;;;;;;13.03;46.67;102499.81;6506908;23;20004;-83
2022/04/30 12:26:03;;;;;;;10.10;4.88;;;;;;;12.65;47.75;102490.00;6505476;23;20016;-84
2022/04/30 12:28:46;;;;;;;11.93;5.53;;;;;;;12.54;48.57;102479.50;6502464;23;20070;-85
2022/04/30 12:31:22;;;;;;;11.80;5.70;;;;;;;12.28;48.63;102468.84;6500974;23;20019;-82
2022/04/30 12:33:53;;;;;;;8.38;5.13;;;;;;;12.41;49.11;102485.50;6473241;23;20004;-81
2022/04/30 12:36:31;;;;;;;9.33;5.27;;;;;;;12.31;49.50;102479.34;6473931;23;20497;-85
2022/04/30 12:39:14;;;;;;;9.10;4.95;;;;;;;12.59;49.67;102482.16;6482583;23;20008;-85
2022/04/30 12:41:48;;;;;;;9.65;4.95;;;;;;;12.55;49.03;102473.38;6503719;23;20054;-82
2022/04/30 12:44:21;;;;;;;12.13;5.13;;;;;;;12.44;48.27;102468.97;6474075;23;19996;-83
2022/04/30 12:46:52;;;;;;;;;;;;;;;12.72;48.16;102493.56;6478135;23;20001;-84
2022/04/30 12:49:24;;;;;;;10.25;5.63;;;;;;;12.70;48.56;102476.97;6502026;23;19911;-84
2022/04/30 12:51:55;;;;;;;7.53;5.20;;;;;;;12.57;48.91;102478.63;6474146;23;20062;-82
2022/04/30 12:54:29;;;;;;;10.30;4.90;;;;;;;12.42;48.71;102482.03;6500473;23;20451;-87
2022/04/30 12:57:07;;;;;;;9.90;4.75;;;;;;;12.32;49.51;102461.94;6503395;23;20008;-84
2022/04/30 12:59:38;;;;;;;12.40;5.90;;;;;;;12.43;49.10;102475.94;6505203;23;20007;-83
2022/04/30 13:02:10;;;;;;;12.20;5.07;;;;;;;12.63;49.05;102468.22;6504543;23;20334;-84
2022/04/30 13:04:42;;;;;;;7.38;5.25;;;;;;;12.76;49.01;102463.91;6506203;23;20005;-86
2022/04/30 13:07:13;;;;;;;8.17;4.70;;;;;;;13.08;48.54;102461.44;6512940;23;20004;-84
2022/04/30 13:15:29;;;;;;;8.25;5.38;;;;;;;13.27;47.22;102446.66;6517538;23;20024;-85
2022/04/30 13:18:01;;;;;;;7.60;5.40;;;;;;;13.20;47.33;102444.00;6511628;23;20380;-83
2022/04/30 13:20:33;;;;;;;10.45;5.47;;;;;;;13.21;48.17;102459.72;6479094;23;20008;-84
2022/04/30 13:23:04;;;;;;;11.23;5.30;;;;;;;13.39;47.17;102448.47;6507266;23;20078;-81
2022/04/30 13:25:36;;;;;;;9.27;5.20;;;;;;;13.35;46.62;102464.16;6479067;23;20430;-84